Time;durP1;ratioP1;P1;durP2;ratioP2;P2;SDS_P1;SDS_P2;PMS_P1;PMS_P2;Temp;Humidity;BMP_temperature;BMP_pressure;BME280_temperature;BME280_humidity;BME280_pressure;Samples;Min_cycle;Max_cycle;Signal;HPM_P1;HPM_P2
2021/05/08 00:01:12;;;;;;;9.03;2.80;;;5.30;99.90;;;;;;5142977;27;20188;-51
2021/05/08 00:03:38;;;;;;;8.63;3.17;;;5.20;99.90;;;;;;5123996;27;20607;-56
2021/05/08 00:06:07;;;;;;;4.90;3.20;;;5.20;99.90;;;;;;5123062;27;20739;-47
2021/05/08 00:08:34;;;;;;;11.57;2.73;;;5.20;99.90;;;;;;5127787;27;20204;-50
2021/05/08 00:11:00;;;;;;;10.70;3.03;;;5.20;99.90;;;;;;5118727;27;20197;-48
2021/05/08 00:13:26;;;;;;;10.70;2.90;;;5.20;99.90;;;;;;5124060;27;20808;-48
2021/05/08 00:15:52;;;;;;;9.17;2.93;;;5.20;99.90;;;;;;5120196;27;20180;-56
2021/05/08 00:18:19;;;;;;;8.50;2.83;;;5.20;99.90;;;;;;5130702;27;20200;-48
2021/05/08 00:20:45;;;;;;;8.37;3.10;;;5.20;99.90;;;;;;5119445;27;20225;-55
2021/05/08 00:23:11;;;;;;;7.57;2.87;;;5.20;99.90;;;;;;5129163;27;20424;-49
2021/05/08 00:25:38;;;;;;;6.93;3.20;;;5.10;99.90;;;;;;5128429;27;20196;-57
2021/05/08 00:28:04;;;;;;;12.17;3.40;;;5.10;99.90;;;;;;5133596;27;20926;-52
2021/05/08 00:30:32;;;;;;;9.17;3.20;;;5.10;99.90;;;;;;5144554;27;20220;-47
2021/05/08 00:32:58;;;;;;;7.97;3.10;;;5.10;99.90;;;;;;5123945;27;20211;-48
2021/05/08 00:35:25;;;;;;;4.23;2.83;;;5.10;99.90;;;;;;5118046;27;20191;-48
2021/05/08 00:37:51;;;;;;;7.97;3.67;;;5.10;99.90;;;;;;5129755;27;20216;-55
2021/05/08 00:40:18;;;;;;;9.67;3.27;;;5.10;99.90;;;;;;5125785;27;20275;-49
2021/05/08 00:42:44;;;;;;;12.27;3.30;;;5.10;99.90;;;;;;5132396;27;20241;-56
2021/05/08 00:45:11;;;;;;;11.43;3.13;;;5.10;99.90;;;;;;5141669;27;20184;-50
2021/05/08 00:47:41;;;;;;;7.87;3.80;;;5.10;99.90;;;;;;5127270;27;20201;-55
2021/05/08 00:50:10;;;;;;;5.47;3.20;;;5.10;99.90;;;;;;5112281;27;20584;-48
2021/05/08 00:52:38;;;;;;;11.40;3.10;;;5.00;99.90;;;;;;5130615;27;20239;-56
2021/05/08 00:55:06;;;;;;;8.43;3.10;;;4.80;99.90;;;;;;5135183;27;20183;-47
2021/05/08 00:57:32;;;;;;;8.60;2.97;;;5.00;99.90;;;;;;5135562;27;20196;-48
2021/05/08 00:59:58;;;;;;;7.90;3.47;;;5.00;99.90;;;;;;5142393;27;20184;-48
2021/05/08 01:02:25;;;;;;;11.10;3.23;;;5.00;99.90;;;;;;5146930;27;20226;-51
2021/05/08 01:04:51;;;;;;;8.47;3.07;;;4.90;99.90;;;;;;5129022;27;20207;-56
2021/05/08 01:07:18;;;;;;;7.23;2.83;;;4.90;99.90;;;;;;5121764;27;20215;-48
2021/05/08 01:09:46;;;;;;;6.00;2.80;;;4.90;99.90;;;;;;5137117;27;20222;-56
2021/05/08 01:12:13;;;;;;;10.97;3.37;;;4.80;99.90;;;;;;5135363;27;20180;-54
2021/05/08 01:14:40;;;;;;;9.33;3.37;;;4.80;99.90;;;;;;5138500;27;20649;-55
2021/05/08 01:17:06;;;;;;;5.80;3.03;;;4.80;99.90;;;;;;5128949;27;20312;-48
2021/05/08 01:19:33;;;;;;;7.40;3.10;;;4.80;99.90;;;;;;5116181;27;20307;-56
2021/05/08 01:22:01;;;;;;;4.37;2.67;;;4.70;99.90;;;;;;5119773;27;20204;-50
2021/05/08 01:24:28;;;;;;;7.60;3.03;;;4.70;99.90;;;;;;5136425;27;20242;-56
2021/05/08 01:26:55;;;;;;;9.07;3.33;;;4.70;99.90;;;;;;5123020;27;20269;-47
2021/05/08 01:29:21;;;;;;;4.30;3.20;;;4.70;99.90;;;;;;5126904;27;20204;-53
2021/05/08 01:31:48;;;;;;;10.27;3.27;;;4.70;99.90;;;;;;5121730;27;20991;-48
2021/05/08 01:34:14;;;;;;;13.67;3.83;;;4.70;99.90;;;;;;5120784;27;20270;-47
2021/05/08 01:36:41;;;;;;;6.87;3.20;;;4.60;99.90;;;;;;5128948;27;20204;-55
2021/05/08 01:39:09;;;;;;;9.17;3.50;;;;;;;;;;5121933;27;20986;-54
2021/05/08 01:41:40;;;;;;;8.20;3.57;;;4.60;99.90;;;;;;5131391;27;20583;-57
2021/05/08 01:44:09;;;;;;;9.33;3.10;;;4.70;99.90;;;;;;5125938;27;20223;-49
2021/05/08 01:46:35;;;;;;;8.00;3.40;;;4.60;99.90;;;;;;5125119;27;20212;-57
2021/05/08 01:49:02;;;;;;;5.57;3.27;;;4.60;99.90;;;;;;5123307;27;20189;-49
2021/05/08 01:51:28;;;;;;;6.57;3.30;;;4.60;99.90;;;;;;5112297;27;20204;-54
2021/05/08 01:53:55;;;;;;;8.20;3.47;;;4.60;99.90;;;;;;5110630;27;20963;-48
2021/05/08 01:56:22;;;;;;;8.00;3.07;;;4.60;99.90;;;;;;5131736;27;20195;-48
2021/05/08 01:58:51;;;;;;;8.37;3.40;;;4.60;99.90;;;;;;5141795;27;20179;-52
2021/05/08 02:01:17;;;;;;;13.60;3.47;;;4.50;99.90;;;;;;5147208;27;20199;-50
2021/05/08 02:03:46;;;;;;;5.57;3.20;;;4.60;99.90;;;;;;5126332;27;20915;-54
2021/05/08 02:06:13;;;;;;;7.43;3.40;;;4.60;99.90;;;;;;5129100;27;20218;-51
2021/05/08 02:08:48;;;;;;;9.57;3.67;;;4.50;99.90;;;;;;5119955;27;20237;-50
2021/05/08 02:11:24;;;;;;;4.30;3.30;;;4.50;99.90;;;;;;5136270;27;20278;-52
2021/05/08 02:13:50;;;;;;;10.13;3.87;;;4.50;99.90;;;;;;5143069;27;20355;-56
2021/05/08 02:16:17;;;;;;;6.33;3.33;;;4.50;99.90;;;;;;5146985;27;20278;-53
2021/05/08 02:18:43;;;;;;;5.80;3.53;;;4.50;99.90;;;;;;5141905;27;20195;-56
2021/05/08 02:21:10;;;;;;;5.23;3.47;;;4.40;99.90;;;;;;5135394;27;20208;-48
2021/05/08 02:23:43;;;;;;;13.63;4.20;;;4.40;99.90;;;;;;5116945;27;20695;-56
2021/05/08 02:26:10;;;;;;;7.30;3.67;;;4.40;99.90;;;;;;5133239;27;20577;-48
2021/05/08 02:28:37;;;;;;;9.40;3.87;;;4.40;99.90;;;;;;5126059;27;20196;-54
2021/05/08 02:31:03;;;;;;;8.13;3.40;;;4.40;99.90;;;;;;5135539;27;20242;-51
2021/05/08 02:33:31;;;;;;;9.07;4.27;;;4.40;99.90;;;;;;5144298;27;20284;-56
2021/05/08 02:35:58;;;;;;;8.33;4.03;;;4.40;99.90;;;;;;5144138;27;20184;-51
2021/05/08 02:38:24;;;;;;;10.73;3.80;;;4.30;99.90;;;;;;5123529;27;20243;-49
2021/05/08 02:40:51;;;;;;;7.40;4.20;;;4.30;99.90;;;;;;5119874;27;20245;-52
2021/05/08 02:43:17;;;;;;;8.50;4.40;;;4.30;99.90;;;;;;5140398;27;20210;-52
2021/05/08 02:45:50;;;;;;;10.73;4.03;;;4.30;99.90;;;;;;5140957;27;20917;-50
2021/05/08 02:48:17;;;;;;;6.47;3.60;;;4.30;99.90;;;;;;5146596;27;20199;-51
2021/05/08 02:50:51;;;;;;;9.23;4.33;;;4.30;99.90;;;;;;5141908;27;20204;-48
2021/05/08 02:53:17;;;;;;;11.47;4.03;;;4.30;99.90;;;;;;5126468;27;20212;-47
2021/05/08 02:55:43;;;;;;;5.77;4.80;;;4.30;99.90;;;;;;5120397;27;20338;-56
2021/05/08 02:58:10;;;;;;;10.00;4.20;;;4.30;99.90;;;;;;5132401;27;20196;-51
2021/05/08 03:00:39;;;;;;;12.90;4.43;;;4.30;99.90;;;;;;5122829;27;20200;-57
2021/05/08 03:03:11;;;;;;;8.60;4.23;;;4.30;99.90;;;;;;5125334;27;20269;-51
2021/05/08 03:05:39;;;;;;;10.20;4.33;;;4.30;99.90;;;;;;5121373;27;20617;-56
2021/05/08 03:08:14;;;;;;;7.60;3.80;;;4.30;99.90;;;;;;5115894;27;20228;-49
2021/05/08 03:10:41;;;;;;;10.27;4.03;;;4.30;99.90;;;;;;5107794;27;20216;-57
2021/05/08 03:13:07;;;;;;;9.97;4.03;;;4.30;99.90;;;;;;5131767;27;20208;-48
2021/05/08 03:15:35;;;;;;;7.07;3.93;;;4.20;99.90;;;;;;5121953;27;20188;-55
2021/05/08 03:18:03;;;;;;;10.63;4.17;;;4.20;99.90;;;;;;5122094;27;20313;-51
2021/05/08 03:20:31;;;;;;;13.17;4.03;;;4.30;99.90;;;;;;5122819;27;20192;-57
2021/05/08 03:22:57;;;;;;;7.43;3.87;;;4.30;99.90;;;;;;5127360;27;20269;-48
2021/05/08 03:25:23;;;;;;;7.87;4.13;;;4.30;99.90;;;;;;5113601;27;20903;-49
2021/05/08 03:27:50;;;;;;;6.97;4.20;;;4.30;99.90;;;;;;5123461;27;20253;-47
2021/05/08 03:30:18;;;;;;;11.13;4.50;;;4.30;99.90;;;;;;5118245;27;20225;-56
2021/05/08 03:32:46;;;;;;;11.53;4.30;;;4.30;99.90;;;;;;5122047;27;20749;-48
2021/05/08 03:35:14;;;;;;;10.23;4.47;;;4.20;99.90;;;;;;5120974;27;20332;-55
2021/05/08 03:37:41;;;;;;;11.60;3.97;;;4.20;99.90;;;;;;5123591;27;20241;-48
2021/05/08 03:40:08;;;;;;;7.93;4.30;;;4.20;99.90;;;;;;5117806;27;20560;-56
2021/05/08 03:42:34;;;;;;;14.10;4.27;;;4.20;99.90;;;;;;5111921;27;20904;-51
2021/05/08 03:45:01;;;;;;;5.13;3.37;;;4.20;99.90;;;;;;5132556;27;20538;-55
2021/05/08 03:47:27;;;;;;;5.80;3.97;;;4.20;99.90;;;;;;5121069;27;20367;-49
2021/05/08 03:49:53;;;;;;;11.53;4.37;;;4.20;99.90;;;;;;5124224;27;20681;-50
2021/05/08 03:52:19;;;;;;;6.13;3.63;;;4.10;99.90;;;;;;5118950;27;20236;-52
2021/05/08 03:54:46;;;;;;;6.97;4.27;;;4.10;99.90;;;;;;5128048;27;20242;-47
2021/05/08 03:57:12;;;;;;;12.17;4.63;;;4.10;99.90;;;;;;5132965;27;20188;-57
2021/05/08 03:59:38;;;;;;;9.57;3.97;;;4.10;99.90;;;;;;5130948;27;20708;-49
2021/05/08 04:02:04;;;;;;;5.53;3.73;;;4.10;99.90;;;;;;5117742;27;20197;-56
2021/05/08 04:04:31;;;;;;;9.53;3.97;;;4.00;99.90;;;;;;5120935;27;20212;-49
2021/05/08 04:06:57;;;;;;;10.80;4.10;;;4.10;99.90;;;;;;5118137;27;20204;-47
2021/05/08 04:09:23;;;;;;;8.33;4.47;;;4.00;99.90;;;;;;5119837;27;20218;-48
2021/05/08 04:11:50;;;;;;;9.80;4.03;;;4.10;99.90;;;;;;5109384;27;20197;-49
2021/05/08 04:14:16;;;;;;;7.87;3.73;;;4.10;99.90;;;;;;5117898;27;20223;-56
2021/05/08 04:16:42;;;;;;;8.70;4.27;;;4.00;99.90;;;;;;5132186;27;20199;-51
2021/05/08 04:19:08;;;;;;;15.30;5.73;;;4.10;99.90;;;;;;5122405;27;20196;-56
2021/05/08 04:21:34;;;;;;;7.97;5.53;;;4.10;99.90;;;;;;5118776;27;20208;-56
2021/05/08 04:24:00;;;;;;;8.77;3.97;;;4.10;99.90;;;;;;5112340;27;20223;-56
2021/05/08 04:26:27;;;;;;;6.50;4.43;;;4.10;99.90;;;;;;5105929;27;20217;-48
2021/05/08 04:28:54;;;;;;;5.60;3.97;;;4.10;99.90;;;;;;5102658;27;20200;-50
2021/05/08 04:31:20;;;;;;;7.97;4.83;;;4.20;99.90;;;;;;5120814;27;20209;-51
2021/05/08 04:33:47;;;;;;;9.77;4.53;;;4.20;99.90;;;;;;5111951;27;20220;-52
2021/05/08 04:36:13;;;;;;;11.13;4.03;;;4.20;99.90;;;;;;5121811;27;20201;-55
2021/05/08 04:38:40;;;;;;;7.77;4.40;;;4.20;99.90;;;;;;5110287;27;20737;-55
2021/05/08 04:41:06;;;;;;;16.57;4.73;;;4.30;99.90;;;;;;5125693;27;20272;-57
2021/05/08 04:43:33;;;;;;;7.70;4.30;;;4.40;99.90;;;;;;5111120;27;20228;-51
2021/05/08 04:46:00;;;;;;;8.97;4.60;;;4.40;99.90;;;;;;5139850;27;20644;-54
2021/05/08 04:48:27;;;;;;;9.30;5.00;;;4.40;99.90;;;;;;5145054;27;20203;-49
2021/05/08 04:50:54;;;;;;;8.43;5.50;;;4.50;99.90;;;;;;5143009;27;20205;-49
2021/05/08 04:53:21;;;;;;;7.40;4.77;;;4.50;99.90;;;;;;5124659;27;20220;-51
2021/05/08 04:55:47;;;;;;;10.07;4.67;;;4.60;99.90;;;;;;5145950;27;20188;-49
2021/05/08 04:58:14;;;;;;;10.83;4.70;;;4.60;99.90;;;;;;5111768;27;20192;-57
2021/05/08 05:00:40;;;;;;;8.67;4.90;;;4.70;99.90;;;;;;5128129;27;20316;-49
2021/05/08 05:03:07;;;;;;;12.87;5.63;;;4.70;99.90;;;;;;5119066;27;20217;-55
2021/05/08 05:05:33;;;;;;;5.97;4.60;;;4.80;99.90;;;;;;5118929;27;20284;-51
2021/05/08 05:07:59;;;;;;;10.20;4.70;;;4.80;99.90;;;;;;5118930;27;20196;-56
2021/05/08 05:10:25;;;;;;;10.80;4.77;;;4.90;99.90;;;;;;5109611;27;20217;-51
2021/05/08 05:12:51;;;;;;;16.27;5.27;;;4.90;99.90;;;;;;5116382;27;20247;-52
2021/05/08 05:15:18;;;;;;;9.33;5.37;;;5.00;99.90;;;;;;5114953;27;20201;-57
2021/05/08 05:17:45;;;;;;;10.50;5.07;;;5.10;99.90;;;;;;5126471;27;20199;-50
2021/05/08 05:20:13;;;;;;;13.77;5.80;;;5.10;99.90;;;;;;5121337;27;20252;-55
2021/05/08 05:22:40;;;;;;;13.90;5.53;;;5.20;99.90;;;;;;5118885;27;20260;-50
2021/05/08 05:25:07;;;;;;;13.07;5.43;;;5.30;99.90;;;;;;5119731;27;20201;-54
2021/05/08 05:27:34;;;;;;;12.97;6.03;;;5.40;99.90;;;;;;5120977;27;20200;-56
2021/05/08 05:30:00;;;;;;;8.83;5.93;;;5.40;99.90;;;;;;5092142;27;20290;-53
2021/05/08 05:32:27;;;;;;;10.67;5.50;;;5.50;99.90;;;;;;5131605;27;20261;-54
2021/05/08 05:34:53;;;;;;;8.43;5.30;;;5.50;99.90;;;;;;5110953;27;20208;-58
2021/05/08 05:37:20;;;;;;;12.20;5.63;;;5.60;99.90;;;;;;5137638;27;20200;-50
2021/05/08 05:39:46;;;;;;;7.17;5.23;;;5.70;99.90;;;;;;5132110;27;20233;-58
2021/05/08 05:42:13;;;;;;;12.77;5.27;;;5.70;99.90;;;;;;5102969;27;20193;-54
2021/05/08 05:44:39;;;;;;;11.23;6.17;;;5.80;99.90;;;;;;5115141;27;20211;-58
2021/05/08 05:47:07;;;;;;;16.57;6.77;;;5.90;99.90;;;;;;5118035;27;20306;-53
2021/05/08 05:49:34;;;;;;;10.67;5.33;;;5.90;99.90;;;;;;5122468;27;20623;-54
2021/05/08 05:52:00;;;;;;;8.03;5.27;;;6.00;99.90;;;;;;5117098;27;20207;-48
2021/05/08 05:54:27;;;;;;;8.63;4.87;;;6.10;99.90;;;;;;5108611;27;20240;-50
2021/05/08 05:56:53;;;;;;;7.97;4.40;;;6.20;99.90;;;;;;5098390;27;20201;-58
2021/05/08 05:59:19;;;;;;;7.90;4.90;;;6.20;99.90;;;;;;5121328;27;20741;-53
2021/05/08 06:01:45;;;;;;;9.07;5.03;;;6.30;99.90;;;;;;5117193;27;20560;-57
2021/05/08 06:04:11;;;;;;;7.37;4.80;;;6.40;99.90;;;;;;5118001;27;21013;-54
2021/05/08 06:06:37;;;;;;;12.83;4.73;;;6.40;99.90;;;;;;5115659;27;20682;-56
2021/05/08 06:09:04;;;;;;;8.47;4.60;;;6.50;99.90;;;;;;5113714;27;20251;-52
2021/05/08 06:11:31;;;;;;;10.23;4.67;;;6.60;99.90;;;;;;5107170;27;20266;-51
2021/05/08 06:13:57;;;;;;;8.73;4.90;;;6.70;99.90;;;;;;5116212;27;20765;-47
2021/05/08 06:16:23;;;;;;;10.17;4.53;;;6.70;99.90;;;;;;5110560;27;20205;-51
2021/05/08 06:18:49;;;;;;;7.33;3.97;;;6.80;99.90;;;;;;5132041;27;20191;-55
2021/05/08 06:21:16;;;;;;;10.90;4.13;;;6.90;99.90;;;;;;5120748;27;20679;-50
2021/05/08 06:23:42;;;;;;;9.53;4.37;;;7.00;99.90;;;;;;5121925;27;20304;-56
2021/05/08 06:26:08;;;;;;;11.77;3.93;;;7.10;99.90;;;;;;5111462;27;20197;-49
2021/05/08 06:28:35;;;;;;;8.57;3.40;;;7.20;99.90;;;;;;5094328;27;20201;-49
2021/05/08 06:31:01;;;;;;;8.17;3.37;;;7.30;99.90;;;;;;5114361;27;20213;-47
2021/05/08 06:33:27;;;;;;;13.13;3.90;;;7.40;99.90;;;;;;5101079;27;20217;-48
2021/05/08 06:35:53;;;;;;;10.57;3.30;;;7.50;99.90;;;;;;5110819;27;20246;-48
2021/05/08 06:38:19;;;;;;;8.47;3.13;;;7.50;99.90;;;;;;5108178;27;20181;-56
2021/05/08 06:40:46;;;;;;;9.60;3.53;;;7.60;99.90;;;;;;5100718;27;20273;-47
2021/05/08 06:43:12;;;;;;;12.00;3.93;;;7.70;99.90;;;;;;5118017;27;20728;-55
2021/05/08 06:45:39;;;;;;;5.00;2.90;;;7.80;99.90;;;;;;5119143;27;20807;-49
2021/05/08 06:48:07;;;;;;;10.40;3.93;;;7.90;99.90;;;;;;5116013;27;20204;-49
2021/05/08 06:50:33;;;;;;;10.17;3.10;;;8.00;99.90;;;;;;5111714;27;20262;-48
2021/05/08 06:52:59;;;;;;;7.73;3.30;;;8.10;99.90;;;;;;5122885;27;20370;-52
2021/05/08 06:55:25;;;;;;;9.23;2.87;;;8.20;99.90;;;;;;5123964;27;20397;-54
2021/05/08 06:57:52;;;;;;;5.70;3.03;;;8.20;99.90;;;;;;5130199;27;20287;-57
2021/05/08 07:00:19;;;;;;;7.37;2.73;;;8.20;99.90;;;;;;5104228;27;20200;-49
2021/05/08 07:02:46;;;;;;;4.00;2.90;;;8.30;99.90;;;;;;5108949;27;20223;-52
2021/05/08 07:05:12;;;;;;;8.90;3.07;;;8.30;99.90;;;;;;5122506;27;20196;-52
2021/05/08 07:07:38;;;;;;;6.67;2.80;;;8.40;99.90;;;;;;5118182;27;20207;-51
2021/05/08 07:10:05;;;;;;;4.67;2.73;;;8.60;99.90;;;;;;5111934;27;20209;-58
2021/05/08 07:12:32;;;;;;;4.47;2.43;;;8.70;99.90;;;;;;5118658;27;20235;-55
2021/05/08 07:14:58;;;;;;;9.47;2.93;;;8.80;99.90;;;;;;5104220;27;20613;-59
2021/05/08 07:17:24;;;;;;;7.37;2.17;;;8.80;99.90;;;;;;5104280;27;20212;-50
2021/05/08 07:19:51;;;;;;;9.60;2.67;;;8.90;99.90;;;;;;5116758;27;20197;-60
2021/05/08 07:22:17;;;;;;;8.10;2.43;;;8.90;99.90;;;;;;5112641;27;20320;-50
2021/05/08 07:24:43;;;;;;;5.73;2.60;;;9.00;99.90;;;;;;5118905;27;20192;-59
2021/05/08 07:27:09;;;;;;;6.07;2.60;;;9.10;99.90;;;;;;5104613;27;20209;-47
2021/05/08 07:29:35;;;;;;;4.60;2.57;;;9.20;99.90;;;;;;5114488;27;20204;-60
2021/05/08 07:32:01;;;;;;;13.20;2.67;;;9.20;99.90;;;;;;5135875;27;20802;-51
2021/05/08 07:34:28;;;;;;;9.67;2.23;;;9.10;99.90;;;;;;5124908;27;20223;-47
2021/05/08 07:36:55;;;;;;;6.73;2.00;;;9.10;99.90;;;;;;5120905;27;20198;-48
2021/05/08 07:39:21;;;;;;;4.70;2.03;;;9.10;99.90;;;;;;5121665;27;20209;-48
2021/05/08 07:41:47;;;;;;;4.00;1.93;;;9.10;99.90;;;;;;5117538;27;20192;-59
2021/05/08 07:44:13;;;;;;;7.20;2.00;;;9.10;99.90;;;;;;5124538;27;20208;-48
2021/05/08 07:46:39;;;;;;;8.00;2.17;;;9.20;99.90;;;;;;5116684;27;20200;-55
2021/05/08 07:49:05;;;;;;;4.27;2.10;;;9.20;99.90;;;;;;5122424;27;20396;-47
2021/05/08 07:51:32;;;;;;;5.27;1.93;;;9.30;99.90;;;;;;5122723;27;20280;-56
2021/05/08 07:53:59;;;;;;;10.60;2.40;;;9.40;99.90;;;;;;5131407;27;20207;-53
2021/05/08 07:56:25;;;;;;;4.97;2.17;;;9.40;99.90;;;;;;5145248;27;20209;-48
2021/05/08 07:58:51;;;;;;;6.53;2.10;;;9.40;99.90;;;;;;5140177;27;20807;-51
2021/05/08 08:01:18;;;;;;;5.63;2.43;;;9.30;99.90;;;;;;5111134;27;20680;-47
2021/05/08 08:03:44;;;;;;;4.83;2.30;;;9.40;99.90;;;;;;5127228;27;20256;-59
2021/05/08 08:06:10;;;;;;;5.30;1.90;;;9.60;99.90;;;;;;5129640;27;20203;-48
2021/05/08 08:08:36;;;;;;;6.47;2.17;;;9.70;99.90;;;;;;5124873;27;20581;-57
2021/05/08 08:11:03;;;;;;;6.90;2.43;;;9.80;99.90;;;;;;5101146;27;20216;-47
2021/05/08 08:13:29;;;;;;;5.33;2.03;;;9.90;99.90;;;;;;5123495;27;20269;-58
2021/05/08 08:15:55;;;;;;;6.23;1.87;;;9.90;99.90;;;;;;5109847;27;20897;-51
2021/05/08 08:18:22;;;;;;;6.97;1.57;;;10.00;99.90;;;;;;5124150;27;20562;-54
2021/05/08 08:20:48;;;;;;;6.37;2.13;;;10.10;99.90;;;;;;5103031;27;20554;-57
2021/05/08 08:23:15;;;;;;;9.60;2.00;;;10.00;99.90;;;;;;5117346;27;20224;-48
2021/05/08 08:25:41;;;;;;;7.50;2.60;;;9.90;99.90;;;;;;5139509;27;20295;-58
2021/05/08 08:28:08;;;;;;;8.40;2.20;;;10.00;99.90;;;;;;5143459;27;20183;-52
2021/05/08 08:30:34;;;;;;;5.33;1.77;;;10.00;99.90;;;;;;5119932;27;20276;-60
2021/05/08 08:33:00;;;;;;;3.17;1.70;;;10.20;99.90;;;;;;5112520;27;20209;-51
2021/05/08 08:35:26;;;;;;;1.93;1.20;;;10.40;99.90;;;;;;5118716;27;20207;-49
2021/05/08 08:37:53;;;;;;;8.80;1.87;;;10.50;99.90;;;;;;5127082;27;20218;-49
2021/05/08 08:40:21;;;;;;;5.37;1.63;;;10.60;99.90;;;;;;5123632;27;20563;-48
2021/05/08 08:42:47;;;;;;;4.40;1.57;;;10.70;99.90;;;;;;5119983;27;20320;-59
2021/05/08 08:45:15;;;;;;;3.80;1.80;;;10.70;99.90;;;;;;5114985;27;20201;-58
2021/05/08 08:47:42;;;;;;;7.77;2.17;;;10.60;99.90;;;;;;5108588;27;20199;-48
2021/05/08 08:50:10;;;;;;;5.67;2.13;;;10.70;99.90;;;;;;5115306;27;20749;-53
2021/05/08 08:52:37;;;;;;;4.33;1.93;;;10.70;99.90;;;;;;5097518;27;20220;-48
2021/05/08 08:55:04;;;;;;;4.37;1.47;;;10.70;99.90;;;;;;5134621;27;20195;-49
2021/05/08 08:57:35;;;;;;;4.17;1.70;;;10.70;99.90;;;;;;5140522;27;20219;-61
2021/05/08 09:00:05;;;;;;;3.47;1.30;;;10.90;99.90;;;;;;5143913;27;20316;-47
2021/05/08 09:02:32;;;;;;;6.87;2.00;;;11.00;99.90;;;;;;5112928;27;20254;-54
2021/05/08 09:04:58;;;;;;;3.13;1.70;;;11.10;99.90;;;;;;5099446;27;20686;-53
2021/05/08 09:07:27;;;;;;;2.63;1.90;;;11.20;99.90;;;;;;5100209;27;20228;-59
2021/05/08 09:09:54;;;;;;;2.77;1.27;;;11.10;99.90;;;;;;5130821;27;20200;-51
2021/05/08 09:12:26;;;;;;;4.13;1.33;;;11.20;99.90;;;;;;5121732;27;20199;-57
2021/05/08 09:14:52;;;;;;;6.97;1.57;;;11.40;99.90;;;;;;5122621;27;20189;-49
2021/05/08 09:17:21;;;;;;;2.50;1.57;;;11.40;99.90;;;;;;5110418;27;20647;-59
2021/05/08 09:19:55;;;;;;;4.40;1.77;;;11.30;99.90;;;;;;5097659;27;20947;-53
2021/05/08 09:22:25;;;;;;;5.07;1.97;;;11.40;99.90;;;;;;5105164;27;20307;-54
2021/05/08 09:25:00;;;;;;;2.40;1.53;;;11.60;99.90;;;;;;5131879;27;20202;-48
2021/05/08 09:27:38;;;;;;;6.20;1.73;;;11.70;99.90;;;;;;5117284;27;20189;-59
2021/05/08 09:30:09;;;;;;;2.37;1.13;;;11.70;99.90;;;;;;5116740;27;20216;-49
2021/05/08 09:32:40;;;;;;;3.07;1.40;;;11.70;99.90;;;;;;5114263;27;20243;-52
2021/05/08 09:35:13;;;;;;;4.03;1.70;;;11.70;99.90;;;;;;5121458;27;20208;-48
2021/05/08 09:37:39;;;;;;;2.47;1.43;;;11.70;99.90;;;;;;5099962;27;20207;-49
2021/05/08 09:40:21;;;;;;;5.13;1.63;;;11.70;99.90;;;;;;5115249;27;20219;-60
2021/05/08 09:42:50;;;;;;;3.13;1.83;;;11.70;99.90;;;;;;5145062;27;20215;-53
2021/05/08 09:45:17;;;;;;;5.53;1.40;;;11.70;99.90;;;;;;5111916;27;20198;-46
2021/05/08 09:47:43;;;;;;;3.10;1.40;;;11.70;99.90;;;;;;5106160;28;20186;-46
2021/05/08 09:50:12;;;;;;;2.67;1.77;;;11.80;99.90;;;;;;5094627;27;20209;-47
2021/05/08 09:52:46;;;;;;;2.17;1.53;;;11.90;99.90;;;;;;5103942;27;20311;-48
2021/05/08 09:55:12;;;;;;;7.53;1.70;;;11.90;99.90;;;;;;5116882;27;20207;-49
2021/05/08 09:57:39;;;;;;;5.00;1.80;;;12.00;99.90;;;;;;5129522;27;20216;-54
2021/05/08 10:00:34;;;;;;;2.33;1.63;;;12.20;99.70;;;;;;5118815;27;20231;-48
2021/05/08 10:03:01;;;;;;;6.33;1.83;;;12.20;99.40;;;;;;5103764;27;20216;-47
2021/05/08 10:05:28;;;;;;;3.40;1.67;;;12.40;99.70;;;;;;5111191;27;20224;-53
2021/05/08 10:07:55;;;;;;;3.57;1.60;;;12.50;98.60;;;;;;5091978;27;21984;-50
2021/05/08 10:10:21;;;;;;;2.80;1.60;;;12.50;99.00;;;;;;5106918;27;20215;-51
2021/05/08 10:12:48;;;;;;;1.97;1.70;;;12.50;98.40;;;;;;5102747;27;20263;-55
2021/05/08 10:15:15;;;;;;;3.67;1.80;;;12.50;98.60;;;;;;5121019;27;20256;-49
2021/05/08 10:17:44;;;;;;;2.77;2.00;;;12.50;98.20;;;;;;5115276;27;20197;-53
2021/05/08 10:20:13;;;;;;;3.17;2.07;;;12.60;98.00;;;;;;5125860;27;20371;-50
2021/05/08 10:22:42;;;;;;;5.23;1.80;;;12.60;97.40;;;;;;5110249;27;20252;-53
2021/05/08 10:25:10;;;;;;;4.27;2.43;;;12.60;97.30;;;;;;5107579;27;20210;-50
2021/05/08 10:27:36;;;;;;;2.40;2.00;;;12.60;96.80;;;;;;5135270;27;20207;-53
2021/05/08 10:30:04;;;;;;;6.07;2.00;;;12.60;96.50;;;;;;5100959;27;20223;-49
2021/05/08 10:32:31;;;;;;;5.97;2.17;;;12.60;97.40;;;;;;5121505;27;20776;-44
2021/05/08 10:34:59;;;;;;;3.27;2.20;;;12.70;96.30;;;;;;5134420;27;20206;-48
2021/05/08 10:37:26;;;;;;;4.60;1.87;;;12.50;95.10;;;;;;5114793;27;20197;-49
2021/05/08 10:39:55;;;;;;;3.90;2.00;;;12.60;94.90;;;;;;5106032;27;20203;-52
2021/05/08 10:42:39;;;;;;;3.93;1.97;;;12.50;93.90;;;;;;5126523;27;20734;-52
2021/05/08 10:45:27;;;;;;;2.93;2.10;;;12.60;92.90;;;;;;5114769;27;20192;-47
2021/05/08 10:48:10;;;;;;;2.60;2.27;;;12.70;94.70;;;;;;5110437;27;20188;-47
2021/05/08 10:50:40;;;;;;;2.93;2.17;;;13.00;95.00;;;;;;5107991;27;20205;-52
2021/05/08 10:53:07;;;;;;;2.83;2.03;;;13.20;94.70;;;;;;5111795;27;20224;-49
2021/05/08 10:55:51;;;;;;;4.10;2.00;;;13.20;94.00;;;;;;5109700;27;20257;-54
2021/05/08 10:58:28;;;;;;;4.47;2.10;;;13.10;94.50;;;;;;5106059;27;20670;-46
2021/05/08 11:00:56;;;;;;;6.50;2.20;;;13.10;93.50;;;;;;5114334;27;20200;-49
2021/05/08 11:03:25;;;;;;;2.87;1.87;;;13.20;94.50;;;;;;5130280;27;20303;-49
2021/05/08 11:05:53;;;;;;;3.87;2.23;;;13.20;92.90;;;;;;5127553;27;20279;-50
2021/05/08 11:08:51;;;;;;;2.67;2.43;;;13.30;91.40;;;;;;5121707;27;20223;-49
2021/05/08 11:11:24;;;;;;;2.60;2.37;;;13.30;91.50;;;;;;5094471;27;20247;-46
2021/05/08 11:13:54;;;;;;;5.77;2.20;;;13.20;90.30;;;;;;5132880;27;20223;-54
2021/05/08 11:16:23;;;;;;;3.60;2.57;;;13.30;92.30;;;;;;5108999;27;20200;-49
2021/05/08 11:18:50;;;;;;;3.07;2.30;;;13.60;92.00;;;;;;5114530;27;20231;-48
2021/05/08 11:21:42;;;;;;;3.53;2.17;;;13.90;91.10;;;;;;5118002;27;20200;-49
2021/05/08 11:24:10;;;;;;;4.63;2.30;;;14.00;87.50;;;;;;5119095;27;20219;-48
2021/05/08 11:26:42;;;;;;;2.57;2.37;;;14.00;86.20;;;;;;5102982;27;20216;-49
2021/05/08 11:29:17;;;;;;;3.50;2.40;;;14.00;84.20;;;;;;5117038;27;20274;-49
2021/05/08 11:31:46;;;;;;;4.33;2.37;;;13.80;80.60;;;;;;5104660;27;20238;-49
2021/05/08 11:34:16;;;;;;;3.33;2.30;;;13.70;83.10;;;;;;5105181;27;20230;-50
2021/05/08 11:36:43;;;;;;;2.97;2.60;;;13.90;84.10;;;;;;5099294;27;20223;-51
2021/05/08 11:39:11;;;;;;;2.50;2.30;;;14.10;83.70;;;;;;5098659;27;20336;-49
2021/05/08 11:41:38;;;;;;;4.70;2.50;;;14.30;81.20;;;;;;5109539;27;20193;-49
2021/05/08 11:44:05;;;;;;;3.27;2.20;;;14.30;82.10;;;;;;5113386;27;20278;-45
2021/05/08 11:46:32;;;;;;;2.57;1.77;;;14.20;74.70;;;;;;5102262;27;20189;-48
2021/05/08 11:48:59;;;;;;;6.90;2.60;;;14.00;72.50;;;;;;5113632;27;20197;-48
2021/05/08 11:51:26;;;;;;;2.87;2.30;;;14.00;72.50;;;;;;5111909;27;20312;-50
2021/05/08 11:54:12;;;;;;;2.20;2.00;;;14.00;73.70;;;;;;5102048;27;20220;-55
2021/05/08 11:56:39;;;;;;;4.40;1.97;;;14.10;73.00;;;;;;5100009;27;20275;-53
2021/05/08 11:59:07;;;;;;;2.83;2.00;;;14.20;72.80;;;;;;5111310;27;20192;-49
2021/05/08 12:01:34;;;;;;;5.80;2.53;;;14.20;70.50;;;;;;5107080;27;20641;-48
2021/05/08 12:04:02;;;;;;;2.67;2.30;;;14.30;70.90;;;;;;5107972;27;20208;-50
2021/05/08 12:06:29;;;;;;;2.60;2.10;;;14.40;68.90;;;;;;5122923;27;20203;-47
2021/05/08 12:08:56;;;;;;;3.17;2.87;;;14.20;66.30;;;;;;5111263;27;20566;-49
2021/05/08 12:11:23;;;;;;;3.70;2.33;;;14.30;68.90;;;;;;5118456;27;20216;-49
2021/05/08 12:13:51;;;;;;;5.80;2.20;;;14.30;67.60;;;;;;5105217;27;20220;-51
2021/05/08 12:16:17;;;;;;;5.80;2.80;;;14.40;64.40;;;;;;5109538;27;20235;-50
2021/05/08 12:18:44;;;;;;;4.93;2.40;;;14.30;65.80;;;;;;5108942;27;20357;-48
2021/05/08 12:21:12;;;;;;;6.47;2.40;;;14.40;62.50;;;;;;5108315;27;20280;-51
2021/05/08 12:23:39;;;;;;;5.67;3.07;;;14.30;62.20;;;;;;5122953;27;20219;-48
2021/05/08 12:26:10;;;;;;;5.60;2.30;;;14.50;64.10;;;;;;5114789;27;20308;-52
2021/05/08 12:28:37;;;;;;;8.57;3.17;;;14.60;62.20;;;;;;5117657;27;20658;-50
2021/05/08 12:31:22;;;;;;;2.93;2.33;;;14.60;62.20;;;;;;5111491;27;20224;-50
2021/05/08 12:33:48;;;;;;;6.43;2.60;;;14.50;60.40;;;;;;5120026;27;20216;-51
2021/05/08 12:36:15;;;;;;;2.80;2.00;;;14.50;62.80;;;;;;5115194;27;20201;-49
2021/05/08 12:38:42;;;;;;;2.53;2.00;;;14.70;65.20;;;;;;5111588;27;20204;-48
2021/05/08 12:41:30;;;;;;;3.97;2.63;;;14.80;65.70;;;;;;5116305;27;20193;-50
2021/05/08 12:44:10;;;;;;;2.53;2.17;;;14.80;66.70;;;;;;5099118;27;20305;-48
2021/05/08 12:47:02;;;;;;;2.83;2.33;;;15.00;62.50;;;;;;5112034;27;20196;-50
2021/05/08 12:49:30;;;;;;;2.60;2.00;;;15.20;66.40;;;;;;5101553;28;20212;-52
2021/05/08 12:51:56;;;;;;;3.13;2.83;;;15.30;62.10;;;;;;5092357;27;23143;-51
2021/05/08 12:54:25;;;;;;;2.87;1.80;;;15.20;61.50;;;;;;5120215;27;20285;-49